sensor_id;sensor_type;location;lat;lon;timestamp;P1;durP1;ratioP1;P2;durP2;ratioP2
32106;SDS011;18622;51.998;10.440;2022-07-22T02:17:45;5.78;;;5.25;;
32106;SDS011;18622;51.998;10.440;2022-07-22T02:20:12;4.87;;;4.37;;
32106;SDS011;18622;51.998;10.440;2022-07-22T02:22:40;7.73;;;5.43;;
32106;SDS011;18622;51.998;10.440;2022-07-22T02:25:08;5.90;;;5.30;;
32106;SDS011;18622;51.998;10.440;2022-07-22T02:27:36;6.83;;;5.17;;
32106;SDS011;18622;51.998;10.440;2022-07-22T02:30:04;4.90;;;4.27;;
32106;SDS011;18622;51.998;10.440;2022-07-22T02:32:32;5.00;;;4.55;;
32106;SDS011;18622;51.998;10.440;2022-07-22T02:35:00;5.90;;;5.13;;
32106;SDS011;18622;51.998;10.440;2022-07-22T02:37:28;6.05;;;4.30;;
32106;SDS011;18622;51.998;10.440;2022-07-22T02:39:56;5.50;;;4.87;;
32106;SDS011;18622;51.998;10.440;2022-07-22T02:42:24;5.43;;;4.60;;
32106;SDS011;18622;51.998;10.440;2022-07-22T02:44:52;4.87;;;4.20;;
32106;SDS011;18622;51.998;10.440;2022-07-22T02:47:19;4.40;;;4.00;;
32106;SDS011;18622;51.998;10.440;2022-07-22T02:49:47;4.90;;;3.50;;
32106;SDS011;18622;51.998;10.440;2022-07-22T02:52:15;4.73;;;3.73;;
32106;SDS011;18622;51.998;10.440;2022-07-22T02:54:43;4.30;;;3.73;;
32106;SDS011;18622;51.998;10.440;2022-07-22T02:57:11;4.00;;;3.63;;
32106;SDS011;18622;51.998;10.440;2022-07-22T02:59:38;4.23;;;3.83;;
32106;SDS011;18622;51.998;10.440;2022-07-22T03:32:40;8.60;;;5.83;;
32106;SDS011;18622;51.998;10.440;2022-07-22T03:35:10;7.58;;;5.30;;
32106;SDS011;18622;51.998;10.440;2022-07-22T03:37:40;5.80;;;5.20;;
32106;SDS011;18622;51.998;10.440;2022-07-22T03:40:08;5.37;;;4.87;;
32106;SDS011;18622;51.998;10.440;2022-07-22T03:42:36;7.87;;;4.47;;
32106;SDS011;18622;51.998;10.440;2022-07-22T03:45:04;5.27;;;4.20;;
32106;SDS011;18622;51.998;10.440;2022-07-22T03:47:32;5.62;;;3.83;;
32106;SDS011;18622;51.998;10.440;2022-07-22T03:50:00;5.67;;;4.03;;
32106;SDS011;18622;51.998;10.440;2022-07-22T03:52:28;5.93;;;3.70;;
32106;SDS011;18622;51.998;10.440;2022-07-22T03:54:56;4.10;;;3.30;;
32106;SDS011;18622;51.998;10.440;2022-07-22T03:57:24;4.97;;;3.33;;
32106;SDS011;18622;51.998;10.440;2022-07-22T03:59:54;5.22;;;2.83;;
32106;SDS011;18622;51.998;10.440;2022-07-22T04:02:21;5.23;;;4.40;;
32106;SDS011;18622;51.998;10.440;2022-07-22T04:04:49;3.40;;;3.10;;
32106;SDS011;18622;51.998;10.440;2022-07-22T04:07:17;4.37;;;3.07;;
32106;SDS011;18622;51.998;10.440;2022-07-22T04:09:45;5.37;;;2.83;;
32106;SDS011;18622;51.998;10.440;2022-07-22T04:12:13;4.70;;;3.03;;
32106;SDS011;18622;51.998;10.440;2022-07-22T04:14:41;4.53;;;2.30;;
32106;SDS011;18622;51.998;10.440;2022-07-22T04:17:08;1.90;;;1.80;;
32106;SDS011;18622;51.998;10.440;2022-07-22T04:19:36;3.73;;;1.90;;
32106;SDS011;18622;51.998;10.440;2022-07-22T04:22:04;1.70;;;1.40;;
32106;SDS011;18622;51.998;10.440;2022-07-22T04:24:32;4.67;;;1.70;;
32106;SDS011;18622;51.998;10.440;2022-07-22T04:26:59;1.50;;;1.40;;
32106;SDS011;18622;51.998;10.440;2022-07-22T04:29:27;2.07;;;1.50;;
32106;SDS011;18622;51.998;10.440;2022-07-22T04:31:55;6.97;;;4.67;;
32106;SDS011;18622;51.998;10.440;2022-07-22T04:34:23;10.20;;;6.83;;
32106;SDS011;18622;51.998;10.440;2022-07-22T04:36:51;11.50;;;6.83;;
32106;SDS011;18622;51.998;10.440;2022-07-22T04:39:18;11.40;;;7.47;;
32106;SDS011;18622;51.998;10.440;2022-07-22T04:41:46;12.13;;;6.97;;
32106;SDS011;18622;51.998;10.440;2022-07-22T04:44:14;14.93;;;7.07;;
32106;SDS011;18622;51.998;10.440;2022-07-22T04:46:42;11.87;;;6.97;;
32106;SDS011;18622;51.998;10.440;2022-07-22T04:49:10;16.33;;;9.20;;
32106;SDS011;18622;51.998;10.440;2022-07-22T04:51:37;17.57;;;8.90;;
32106;SDS011;18622;51.998;10.440;2022-07-22T04:54:05;18.97;;;8.87;;
32106;SDS011;18622;51.998;10.440;2022-07-22T04:56:33;18.37;;;9.77;;
32106;SDS011;18622;51.998;10.440;2022-07-22T04:59:01;17.47;;;9.80;;
32106;SDS011;18622;51.998;10.440;2022-07-22T05:01:29;19.10;;;10.33;;
32106;SDS011;18622;51.998;10.440;2022-07-22T05:03:56;21.33;;;11.00;;
32106;SDS011;18622;51.998;10.440;2022-07-22T05:06:24;21.57;;;10.50;;
32106;SDS011;18622;51.998;10.440;2022-07-22T05:08:52;23.07;;;10.90;;
32106;SDS011;18622;51.998;10.440;2022-07-22T05:11:20;24.23;;;10.83;;
32106;SDS011;18622;51.998;10.440;2022-07-22T05:13:48;20.20;;;9.87;;
32106;SDS011;18622;51.998;10.440;2022-07-22T09:04:23;2.40;;;2.00;;
32106;SDS011;18622;51.998;10.440;2022-07-22T09:06:51;2.47;;;1.67;;
32106;SDS011;18622;51.998;10.440;2022-07-22T09:09:18;2.67;;;1.90;;
32106;SDS011;18622;51.998;10.440;2022-07-22T09:11:49;5.15;;;2.12;;
32106;SDS011;18622;51.998;10.440;2022-07-22T09:14:18;4.35;;;2.10;;
32106;SDS011;18622;51.998;10.440;2022-07-22T09:16:47;2.10;;;1.80;;
32106;SDS011;18622;51.998;10.440;2022-07-22T09:19:14;6.12;;;2.15;;
32106;SDS011;18622;51.998;10.440;2022-07-22T09:21:43;5.40;;;2.27;;
32106;SDS011;18622;51.998;10.440;2022-07-22T09:24:26;4.70;;;2.17;;
32106;SDS011;18622;51.998;10.440;2022-07-22T09:26:59;5.40;;;2.30;;
32106;SDS011;18622;51.998;10.440;2022-07-22T09:29:27;3.57;;;2.30;;
32106;SDS011;18622;51.998;10.440;2022-07-22T09:31:55;4.33;;;2.00;;
32106;SDS011;18622;51.998;10.440;2022-07-22T09:34:26;3.20;;;2.60;;
32106;SDS011;18622;51.998;10.440;2022-07-22T09:37:00;3.70;;;2.17;;
32106;SDS011;18622;51.998;10.440;2022-07-22T09:39:28;2.35;;;2.15;;
32106;SDS011;18622;51.998;10.440;2022-07-22T09:41:57;2.72;;;2.17;;
32106;SDS011;18622;51.998;10.440;2022-07-22T09:44:26;2.47;;;2.12;;
32106;SDS011;18622;51.998;10.440;2022-07-22T09:46:54;2.67;;;2.20;;
32106;SDS011;18622;51.998;10.440;2022-07-22T09:49:35;2.60;;;1.90;;
32106;SDS011;18622;51.998;10.440;2022-07-22T09:52:06;3.77;;;2.60;;
32106;SDS011;18622;51.998;10.440;2022-07-22T09:54:34;5.23;;;2.30;;
32106;SDS011;18622;51.998;10.440;2022-07-22T09:57:01;5.53;;;2.40;;
32106;SDS011;18622;51.998;10.440;2022-07-22T09:59:29;2.20;;;2.00;;
32106;SDS011;18622;51.998;10.440;2022-07-22T10:01:58;3.77;;;2.47;;
32106;SDS011;18622;51.998;10.440;2022-07-22T10:04:28;3.98;;;2.00;;
32106;SDS011;18622;51.998;10.440;2022-07-22T10:06:57;2.02;;;1.75;;
32106;SDS011;18622;51.998;10.440;2022-07-22T10:11:54;3.60;;;1.62;;
32106;SDS011;18622;51.998;10.440;2022-07-22T10:14:23;5.80;;;2.20;;
32106;SDS011;18622;51.998;10.440;2022-07-22T10:16:52;5.20;;;1.98;;
32106;SDS011;18622;51.998;10.440;2022-07-22T10:19:20;2.02;;;1.80;;
32106;SDS011;18622;51.998;10.440;2022-07-22T10:21:48;3.77;;;1.90;;
32106;SDS011;18622;51.998;10.440;2022-07-22T10:24:16;2.50;;;2.30;;
32106;SDS011;18622;51.998;10.440;2022-07-22T10:26:48;3.52;;;2.12;;
32106;SDS011;18622;51.998;10.440;2022-07-22T10:37:39;2.70;;;2.00;;
32106;SDS011;18622;51.998;10.440;2022-07-22T10:40:25;3.67;;;2.22;;
32106;SDS011;18622;51.998;10.440;2022-07-22T10:45:42;2.10;;;1.80;;
32106;SDS011;18622;51.998;10.440;2022-07-22T10:48:17;2.10;;;1.90;;
32106;SDS011;18622;51.998;10.440;2022-07-22T10:51:09;3.43;;;2.40;;
32106;SDS011;18622;51.998;10.440;2022-07-22T10:53:19;3.10;;;2.00;;
32106;SDS011;18622;51.998;10.440;2022-07-22T10:55:59;5.03;;;1.72;;
32106;SDS011;18622;51.998;10.440;2022-07-22T12:34:09;2.97;;;2.77;;
32106;SDS011;18622;51.998;10.440;2022-07-22T12:36:36;2.60;;;2.37;;
32106;SDS011;18622;51.998;10.440;2022-07-22T12:39:14;3.03;;;2.10;;
32106;SDS011;18622;51.998;10.440;2022-07-22T12:41:47;2.43;;;2.23;;
32106;SDS011;18622;51.998;10.440;2022-07-22T12:44:20;2.75;;;2.50;;
32106;SDS011;18622;51.998;10.440;2022-07-22T12:46:50;3.10;;;2.60;;
32106;SDS011;18622;51.998;10.440;2022-07-22T12:49:21;4.87;;;2.60;;
32106;SDS011;18622;51.998;10.440;2022-07-22T12:52:05;2.30;;;2.10;;
32106;SDS011;18622;51.998;10.440;2022-07-22T12:54:40;2.67;;;2.10;;
32106;SDS011;18622;51.998;10.440;2022-07-22T12:57:08;5.20;;;2.65;;
32106;SDS011;18622;51.998;10.440;2022-07-22T12:59:36;4.03;;;2.60;;
32106;SDS011;18622;51.998;10.440;2022-07-22T13:02:04;2.67;;;2.10;;
32106;SDS011;18622;51.998;10.440;2022-07-22T13:04:32;2.60;;;2.40;;
32106;SDS011;18622;51.998;10.440;2022-07-22T13:07:00;4.80;;;2.20;;
32106;SDS011;18622;51.998;10.440;2022-07-22T13:09:27;3.90;;;2.07;;
32106;SDS011;18622;51.998;10.440;2022-07-22T13:11:55;3.23;;;2.40;;
32106;SDS011;18622;51.998;10.440;2022-07-22T13:14:23;2.80;;;2.23;;
32106;SDS011;18622;51.998;10.440;2022-07-22T13:16:51;3.33;;;2.60;;
32106;SDS011;18622;51.998;10.440;2022-07-22T13:19:19;3.40;;;2.20;;
32106;SDS011;18622;51.998;10.440;2022-07-22T13:21:47;2.93;;;2.57;;
32106;SDS011;18622;51.998;10.440;2022-07-22T13:24:14;3.07;;;2.43;;
32106;SDS011;18622;51.998;10.440;2022-07-22T13:26:42;4.40;;;2.90;;
32106;SDS011;18622;51.998;10.440;2022-07-22T13:29:10;6.87;;;2.50;;
32106;SDS011;18622;51.998;10.440;2022-07-22T13:31:38;3.43;;;2.47;;
32106;SDS011;18622;51.998;10.440;2022-07-22T13:34:08;3.73;;;2.47;;
32106;SDS011;18622;51.998;10.440;2022-07-22T13:36:35;2.80;;;2.60;;
32106;SDS011;18622;51.998;10.440;2022-07-22T13:39:03;5.50;;;2.50;;
32106;SDS011;18622;51.998;10.440;2022-07-22T13:41:31;2.73;;;2.47;;
32106;SDS011;18622;51.998;10.440;2022-07-22T13:43:59;2.50;;;2.23;;
32106;SDS011;18622;51.998;10.440;2022-07-22T13:46:27;2.80;;;2.33;;
32106;SDS011;18622;51.998;10.440;2022-07-22T13:48:55;2.90;;;2.60;;
32106;SDS011;18622;51.998;10.440;2022-07-22T13:51:23;3.80;;;2.73;;
32106;SDS011;18622;51.998;10.440;2022-07-22T13:53:53;3.77;;;2.67;;
32106;SDS011;18622;51.998;10.440;2022-07-22T13:56:23;2.93;;;2.63;;
32106;SDS011;18622;51.998;10.440;2022-07-22T13:58:51;4.17;;;2.87;;
32106;SDS011;18622;51.998;10.440;2022-07-22T14:01:19;3.03;;;2.67;;
32106;SDS011;18622;51.998;10.440;2022-07-22T14:03:47;2.50;;;2.30;;
32106;SDS011;18622;51.998;10.440;2022-07-22T14:06:15;5.87;;;3.00;;
32106;SDS011;18622;51.998;10.440;2022-07-22T14:08:44;2.60;;;2.40;;
32106;SDS011;18622;51.998;10.440;2022-07-22T14:11:12;6.80;;;2.52;;
32106;SDS011;18622;51.998;10.440;2022-07-22T14:13:40;3.10;;;2.40;;
32106;SDS011;18622;51.998;10.440;2022-07-22T14:16:08;2.43;;;2.20;;
32106;SDS011;18622;51.998;10.440;2022-07-22T14:18:53;4.20;;;2.53;;
32106;SDS011;18622;51.998;10.440;2022-07-22T14:21:21;4.23;;;2.80;;
32106;SDS011;18622;51.998;10.440;2022-07-22T14:23:49;3.47;;;2.70;;
32106;SDS011;18622;51.998;10.440;2022-07-22T14:26:17;5.17;;;2.60;;
32106;SDS011;18622;51.998;10.440;2022-07-22T14:28:44;4.57;;;2.90;;
32106;SDS011;18622;51.998;10.440;2022-07-22T14:31:12;4.03;;;2.37;;
32106;SDS011;18622;51.998;10.440;2022-07-22T14:33:40;4.33;;;2.37;;
32106;SDS011;18622;51.998;10.440;2022-07-22T14:36:08;3.63;;;2.57;;
32106;SDS011;18622;51.998;10.440;2022-07-22T14:38:36;4.93;;;2.67;;
32106;SDS011;18622;51.998;10.440;2022-07-22T14:41:04;4.03;;;2.60;;
32106;SDS011;18622;51.998;10.440;2022-07-22T14:43:33;6.62;;;2.52;;
32106;SDS011;18622;51.998;10.440;2022-07-22T14:46:02;2.90;;;2.67;;
32106;SDS011;18622;51.998;10.440;2022-07-22T14:48:34;4.03;;;2.62;;
32106;SDS011;18622;51.998;10.440;2022-07-22T14:51:02;3.15;;;2.50;;
32106;SDS011;18622;51.998;10.440;2022-07-22T14:53:30;2.10;;;2.00;;
32106;SDS011;18622;51.998;10.440;2022-07-22T14:55:58;2.83;;;2.60;;
32106;SDS011;18622;51.998;10.440;2022-07-22T14:58:26;2.73;;;2.47;;
32106;SDS011;18622;51.998;10.440;2022-07-22T15:00:54;3.63;;;2.40;;
32106;SDS011;18622;51.998;10.440;2022-07-22T15:03:22;5.53;;;2.60;;
32106;SDS011;18622;51.998;10.440;2022-07-22T15:05:50;2.30;;;2.10;;
32106;SDS011;18622;51.998;10.440;2022-07-22T15:08:18;2.45;;;2.25;;
32106;SDS011;18622;51.998;10.440;2022-07-22T15:10:46;3.83;;;2.60;;
32106;SDS011;18622;51.998;10.440;2022-07-22T15:13:14;9.87;;;3.00;;
32106;SDS011;18622;51.998;10.440;2022-07-22T15:15:41;3.77;;;2.50;;
32106;SDS011;18622;51.998;10.440;2022-07-22T15:18:09;4.23;;;2.57;;
32106;SDS011;18622;51.998;10.440;2022-07-22T15:20:37;4.20;;;2.70;;
32106;SDS011;18622;51.998;10.440;2022-07-22T15:23:05;6.73;;;3.30;;
32106;SDS011;18622;51.998;10.440;2022-07-22T15:25:33;7.53;;;2.63;;
32106;SDS011;18622;51.998;10.440;2022-07-22T15:28:01;4.43;;;2.97;;
32106;SDS011;18622;51.998;10.440;2022-07-22T15:30:28;4.43;;;2.83;;
32106;SDS011;18622;51.998;10.440;2022-07-22T15:32:56;6.97;;;2.80;;
32106;SDS011;18622;51.998;10.440;2022-07-22T15:35:24;4.20;;;2.70;;
32106;SDS011;18622;51.998;10.440;2022-07-22T15:37:52;8.37;;;3.20;;
32106;SDS011;18622;51.998;10.440;2022-07-22T15:40:20;2.80;;;2.50;;
32106;SDS011;18622;51.998;10.440;2022-07-22T15:42:48;4.07;;;3.00;;
32106;SDS011;18622;51.998;10.440;2022-07-22T15:45:16;6.33;;;2.87;;
32106;SDS011;18622;51.998;10.440;2022-07-22T15:47:43;4.20;;;2.73;;
32106;SDS011;18622;51.998;10.440;2022-07-22T15:50:11;4.53;;;3.33;;
32106;SDS011;18622;51.998;10.440;2022-07-22T15:52:39;7.97;;;2.77;;
32106;SDS011;18622;51.998;10.440;2022-07-22T15:55:07;4.63;;;2.63;;
32106;SDS011;18622;51.998;10.440;2022-07-22T15:57:35;4.37;;;2.90;;
32106;SDS011;18622;51.998;10.440;2022-07-22T16:00:21;5.10;;;3.00;;
32106;SDS011;18622;51.998;10.440;2022-07-22T16:02:48;7.17;;;3.13;;
32106;SDS011;18622;51.998;10.440;2022-07-22T16:05:16;3.43;;;2.87;;
32106;SDS011;18622;51.998;10.440;2022-07-22T16:07:44;5.83;;;3.37;;
32106;SDS011;18622;51.998;10.440;2022-07-22T16:10:12;4.93;;;3.03;;
32106;SDS011;18622;51.998;10.440;2022-07-22T16:12:40;5.70;;;2.87;;
32106;SDS011;18622;51.998;10.440;2022-07-22T16:15:08;2.90;;;2.60;;
32106;SDS011;18622;51.998;10.440;2022-07-22T16:17:41;3.42;;;3.08;;
32106;SDS011;18622;51.998;10.440;2022-07-22T16:20:09;3.00;;;2.70;;
32106;SDS011;18622;51.998;10.440;2022-07-22T16:22:37;4.60;;;2.80;;
32106;SDS011;18622;51.998;10.440;2022-07-22T16:25:05;5.40;;;3.23;;
32106;SDS011;18622;51.998;10.440;2022-07-22T16:27:33;4.33;;;2.90;;
32106;SDS011;18622;51.998;10.440;2022-07-22T16:30:01;3.17;;;2.83;;
32106;SDS011;18622;51.998;10.440;2022-07-22T16:32:29;4.13;;;3.23;;
32106;SDS011;18622;51.998;10.440;2022-07-22T16:34:57;4.60;;;3.13;;
32106;SDS011;18622;51.998;10.440;2022-07-22T16:37:25;4.97;;;3.80;;
32106;SDS011;18622;51.998;10.440;2022-07-22T16:39:52;6.03;;;2.90;;
32106;SDS011;18622;51.998;10.440;2022-07-22T16:42:20;6.37;;;2.80;;
32106;SDS011;18622;51.998;10.440;2022-07-22T16:44:48;12.33;;;3.40;;
32106;SDS011;18622;51.998;10.440;2022-07-22T16:47:16;6.57;;;3.53;;
32106;SDS011;18622;51.998;10.440;2022-07-22T16:49:44;7.63;;;3.10;;
32106;SDS011;18622;51.998;10.440;2022-07-22T16:52:12;6.53;;;2.97;;
32106;SDS011;18622;51.998;10.440;2022-07-22T16:54:39;4.93;;;3.13;;
32106;SDS011;18622;51.998;10.440;2022-07-22T16:57:07;4.47;;;2.90;;
32106;SDS011;18622;51.998;10.440;2022-07-22T16:59:35;7.33;;;3.33;;
32106;SDS011;18622;51.998;10.440;2022-07-22T17:02:03;11.10;;;5.00;;
32106;SDS011;18622;51.998;10.440;2022-07-22T17:04:31;6.90;;;3.73;;
32106;SDS011;18622;51.998;10.440;2022-07-22T17:06:58;4.40;;;2.60;;
32106;SDS011;18622;51.998;10.440;2022-07-22T17:09:26;8.03;;;3.17;;
32106;SDS011;18622;51.998;10.440;2022-07-22T17:11:54;4.67;;;2.60;;
32106;SDS011;18622;51.998;10.440;2022-07-22T17:14:22;4.50;;;2.60;;
32106;SDS011;18622;51.998;10.440;2022-07-22T17:16:50;6.23;;;2.67;;
32106;SDS011;18622;51.998;10.440;2022-07-22T17:19:17;8.07;;;2.67;;
32106;SDS011;18622;51.998;10.440;2022-07-22T17:21:45;3.83;;;2.57;;
32106;SDS011;18622;51.998;10.440;2022-07-22T17:24:13;5.13;;;2.50;;
32106;SDS011;18622;51.998;10.440;2022-07-22T17:26:41;4.60;;;2.77;;
32106;SDS011;18622;51.998;10.440;2022-07-22T17:29:09;8.07;;;2.90;;
32106;SDS011;18622;51.998;10.440;2022-07-22T17:31:36;3.80;;;2.40;;
32106;SDS011;18622;51.998;10.440;2022-07-22T17:34:04;7.27;;;2.50;;
32106;SDS011;18622;51.998;10.440;2022-07-22T17:36:32;6.33;;;2.53;;
32106;SDS011;18622;51.998;10.440;2022-07-22T17:39:00;7.70;;;2.43;;
32106;SDS011;18622;51.998;10.440;2022-07-22T17:41:28;6.47;;;2.70;;
32106;SDS011;18622;51.998;10.440;2022-07-22T17:43:55;5.47;;;2.50;;
32106;SDS011;18622;51.998;10.440;2022-07-22T17:46:23;4.63;;;2.27;;
32106;SDS011;18622;51.998;10.440;2022-07-22T17:48:51;4.83;;;2.63;;
32106;SDS011;18622;51.998;10.440;2022-07-22T17:51:19;8.77;;;2.83;;
32106;SDS011;18622;51.998;10.440;2022-07-22T17:53:47;6.17;;;2.60;;
32106;SDS011;18622;51.998;10.440;2022-07-22T17:56:15;4.80;;;2.43;;
32106;SDS011;18622;51.998;10.440;2022-07-22T17:58:43;5.93;;;2.97;;
32106;SDS011;18622;51.998;10.440;2022-07-22T18:01:10;8.67;;;3.00;;
32106;SDS011;18622;51.998;10.440;2022-07-22T18:03:38;8.00;;;3.20;;
32106;SDS011;18622;51.998;10.440;2022-07-22T18:06:06;7.57;;;2.60;;
32106;SDS011;18622;51.998;10.440;2022-07-22T18:08:34;6.67;;;2.80;;
32106;SDS011;18622;51.998;10.440;2022-07-22T18:11:02;7.30;;;3.20;;
32106;SDS011;18622;51.998;10.440;2022-07-22T18:13:32;4.40;;;2.52;;
32106;SDS011;18622;51.998;10.440;2022-07-22T18:15:59;3.97;;;2.77;;
32106;SDS011;18622;51.998;10.440;2022-07-22T18:18:27;9.40;;;2.67;;
32106;SDS011;18622;51.998;10.440;2022-07-22T18:20:55;8.03;;;3.10;;
32106;SDS011;18622;51.998;10.440;2022-07-22T18:23:23;8.63;;;2.97;;
32106;SDS011;18622;51.998;10.440;2022-07-22T18:25:51;8.87;;;3.10;;
32106;SDS011;18622;51.998;10.440;2022-07-22T18:28:19;7.00;;;3.00;;
32106;SDS011;18622;51.998;10.440;2022-07-22T18:30:48;11.48;;;3.37;;
32106;SDS011;18622;51.998;10.440;2022-07-22T18:33:15;5.87;;;2.67;;
32106;SDS011;18622;51.998;10.440;2022-07-22T18:35:43;9.57;;;2.73;;
32106;SDS011;18622;51.998;10.440;2022-07-22T18:38:11;5.53;;;3.17;;
32106;SDS011;18622;51.998;10.440;2022-07-22T18:40:39;10.13;;;3.20;;
32106;SDS011;18622;51.998;10.440;2022-07-22T18:43:07;5.97;;;3.00;;
32106;SDS011;18622;51.998;10.440;2022-07-22T18:45:34;10.37;;;3.27;;
32106;SDS011;18622;51.998;10.440;2022-07-22T18:48:02;9.93;;;2.67;;
32106;SDS011;18622;51.998;10.440;2022-07-22T18:50:30;6.33;;;3.10;;
32106;SDS011;18622;51.998;10.440;2022-07-22T18:53:00;7.92;;;3.62;;
32106;SDS011;18622;51.998;10.440;2022-07-22T18:55:27;8.67;;;3.60;;
32106;SDS011;18622;51.998;10.440;2022-07-22T18:57:55;10.13;;;3.23;;
32106;SDS011;18622;51.998;10.440;2022-07-22T19:00:23;8.67;;;3.10;;
32106;SDS011;18622;51.998;10.440;2022-07-22T19:02:51;7.50;;;3.13;;
32106;SDS011;18622;51.998;10.440;2022-07-22T19:05:19;8.17;;;3.33;;
32106;SDS011;18622;51.998;10.440;2022-07-22T19:07:46;6.63;;;3.10;;
32106;SDS011;18622;51.998;10.440;2022-07-22T19:10:17;17.77;;;3.83;;
32106;SDS011;18622;51.998;10.440;2022-07-22T19:12:44;5.03;;;3.57;;
32106;SDS011;18622;51.998;10.440;2022-07-22T19:15:12;11.07;;;3.53;;
32106;SDS011;18622;51.998;10.440;2022-07-22T19:17:40;8.37;;;3.27;;
32106;SDS011;18622;51.998;10.440;2022-07-22T19:20:09;9.65;;;3.30;;
32106;SDS011;18622;51.998;10.440;2022-07-22T19:22:37;11.90;;;4.53;;
32106;SDS011;18622;51.998;10.440;2022-07-22T19:25:06;8.85;;;3.60;;
32106;SDS011;18622;51.998;10.440;2022-07-22T19:27:34;7.75;;;3.37;;
32106;SDS011;18622;51.998;10.440;2022-07-22T19:30:02;8.83;;;3.93;;
32106;SDS011;18622;51.998;10.440;2022-07-22T19:32:31;7.37;;;3.58;;
32106;SDS011;18622;51.998;10.440;2022-07-22T19:34:59;5.67;;;3.57;;
32106;SDS011;18622;51.998;10.440;2022-07-22T19:37:27;8.13;;;3.60;;
32106;SDS011;18622;51.998;10.440;2022-07-22T19:39:55;7.57;;;3.13;;
32106;SDS011;18622;51.998;10.440;2022-07-22T19:42:22;7.30;;;3.00;;
32106;SDS011;18622;51.998;10.440;2022-07-22T19:44:50;10.50;;;4.33;;
32106;SDS011;18622;51.998;10.440;2022-07-22T19:47:18;4.30;;;3.20;;
32106;SDS011;18622;51.998;10.440;2022-07-22T19:49:46;8.25;;;3.70;;
32106;SDS011;18622;51.998;10.440;2022-07-22T19:52:14;10.30;;;3.90;;
32106;SDS011;18622;51.998;10.440;2022-07-22T19:54:42;9.83;;;4.30;;
32106;SDS011;18622;51.998;10.440;2022-07-22T19:57:10;10.23;;;3.77;;
32106;SDS011;18622;51.998;10.440;2022-07-22T19:59:38;10.17;;;3.70;;
32106;SDS011;18622;51.998;10.440;2022-07-22T20:02:06;7.60;;;4.77;;
32106;SDS011;18622;51.998;10.440;2022-07-22T20:04:34;7.80;;;3.97;;
32106;SDS011;18622;51.998;10.440;2022-07-22T20:07:01;11.13;;;3.93;;
32106;SDS011;18622;51.998;10.440;2022-07-22T20:09:29;8.20;;;4.17;;
32106;SDS011;18622;51.998;10.440;2022-07-22T20:11:57;8.80;;;4.47;;
32106;SDS011;18622;51.998;10.440;2022-07-22T20:14:25;12.13;;;4.40;;
32106;SDS011;18622;51.998;10.440;2022-07-22T20:16:53;12.73;;;4.30;;
32106;SDS011;18622;51.998;10.440;2022-07-22T20:19:20;12.23;;;3.70;;
32106;SDS011;18622;51.998;10.440;2022-07-22T20:21:48;9.83;;;4.00;;
32106;SDS011;18622;51.998;10.440;2022-07-22T20:24:16;11.13;;;4.17;;
32106;SDS011;18622;51.998;10.440;2022-07-22T20:26:44;9.10;;;3.87;;
32106;SDS011;18622;51.998;10.440;2022-07-22T20:29:11;9.53;;;4.27;;
32106;SDS011;18622;51.998;10.440;2022-07-22T20:31:39;11.70;;;4.10;;
32106;SDS011;18622;51.998;10.440;2022-07-22T20:34:07;9.50;;;4.37;;
32106;SDS011;18622;51.998;10.440;2022-07-22T20:36:35;8.13;;;3.87;;
32106;SDS011;18622;51.998;10.440;2022-07-22T20:39:03;9.57;;;4.97;;
32106;SDS011;18622;51.998;10.440;2022-07-22T20:41:30;8.60;;;3.90;;
32106;SDS011;18622;51.998;10.440;2022-07-22T20:43:58;8.43;;;3.63;;
32106;SDS011;18622;51.998;10.440;2022-07-22T20:46:26;11.83;;;4.60;;
32106;SDS011;18622;51.998;10.440;2022-07-22T20:48:54;10.53;;;3.63;;
32106;SDS011;18622;51.998;10.440;2022-07-22T20:51:22;9.97;;;4.10;;
32106;SDS011;18622;51.998;10.440;2022-07-22T20:53:49;6.03;;;3.40;;
32106;SDS011;18622;51.998;10.440;2022-07-22T20:56:17;9.13;;;3.93;;
32106;SDS011;18622;51.998;10.440;2022-07-22T20:58:45;8.83;;;4.53;;
32106;SDS011;18622;51.998;10.440;2022-07-22T21:01:13;7.43;;;4.03;;
32106;SDS011;18622;51.998;10.440;2022-07-22T21:03:41;6.03;;;3.87;;
32106;SDS011;18622;51.998;10.440;2022-07-22T21:06:09;10.17;;;3.73;;
32106;SDS011;18622;51.998;10.440;2022-07-22T21:08:36;9.93;;;4.13;;
32106;SDS011;18622;51.998;10.440;2022-07-22T21:11:05;10.10;;;3.97;;
32106;SDS011;18622;51.998;10.440;2022-07-22T21:13:33;5.90;;;4.10;;
32106;SDS011;18622;51.998;10.440;2022-07-22T21:16:00;10.83;;;3.83;;
32106;SDS011;18622;51.998;10.440;2022-07-22T21:18:28;7.63;;;3.90;;
32106;SDS011;18622;51.998;10.440;2022-07-22T21:20:56;7.10;;;3.93;;
32106;SDS011;18622;51.998;10.440;2022-07-22T21:23:24;7.70;;;4.30;;
32106;SDS011;18622;51.998;10.440;2022-07-22T21:25:52;9.50;;;4.37;;
32106;SDS011;18622;51.998;10.440;2022-07-22T21:28:20;6.33;;;3.63;;
32106;SDS011;18622;51.998;10.440;2022-07-22T21:30:48;6.83;;;4.27;;
32106;SDS011;18622;51.998;10.440;2022-07-22T21:33:15;7.90;;;3.77;;
32106;SDS011;18622;51.998;10.440;2022-07-22T21:35:43;7.10;;;3.90;;
32106;SDS011;18622;51.998;10.440;2022-07-22T21:38:11;7.40;;;3.50;;
32106;SDS011;18622;51.998;10.440;2022-07-22T21:40:39;7.07;;;3.17;;
32106;SDS011;18622;51.998;10.440;2022-07-22T21:43:07;7.80;;;3.63;;
